createdAt,value
2017-08-22T00:00:53.969Z,6.10
2017-08-22T00:03:27.352Z,5.87
2017-08-22T00:05:55.105Z,5.83
2017-08-22T00:08:22.754Z,6.03
2017-08-22T00:10:50.528Z,6.70
2017-08-22T00:13:18.274Z,5.80
2017-08-22T00:15:46.019Z,5.53
2017-08-22T00:18:13.699Z,6.03
2017-08-22T00:20:41.438Z,6.77
2017-08-22T00:23:09.191Z,6.53
2017-08-22T00:25:36.846Z,6.53
2017-08-22T00:28:04.606Z,6.70
2017-08-22T00:30:32.404Z,6.27
2017-08-22T00:33:00.083Z,5.90
2017-08-22T00:35:27.851Z,6.00
2017-08-22T00:37:55.513Z,6.50
2017-08-22T00:40:23.275Z,6.60
2017-08-22T00:42:50.927Z,5.80
2017-08-22T00:45:18.590Z,6.10
2017-08-22T00:47:46.343Z,5.93
2017-08-22T00:50:14.066Z,5.70
2017-08-22T00:52:41.827Z,6.10
2017-08-22T00:55:09.490Z,5.93
2017-08-22T00:57:37.289Z,6.33
2017-08-22T01:00:04.977Z,5.80
2017-08-22T01:02:32.629Z,5.70
2017-08-22T01:05:00.388Z,6.07
2017-08-22T01:07:28.085Z,6.20
2017-08-22T01:09:55.851Z,6.27
2017-08-22T01:12:23.610Z,6.80
2017-08-22T01:14:51.311Z,5.93
2017-08-22T01:17:19.079Z,5.90
2017-08-22T01:19:46.790Z,5.63
2017-08-22T01:22:14.508Z,6.50
2017-08-22T01:24:42.315Z,5.93
2017-08-22T01:27:10.008Z,6.03
2017-08-22T01:29:37.844Z,6.70
2017-08-22T01:32:05.546Z,6.33
2017-08-22T01:34:33.256Z,6.30
2017-08-22T01:37:01.075Z,5.73
2017-08-22T01:39:28.774Z,5.87
2017-08-22T01:41:56.581Z,5.50
2017-08-22T01:44:24.254Z,6.33
2017-08-22T01:46:51.903Z,5.73
2017-08-22T01:49:19.684Z,5.70
2017-08-22T01:51:47.339Z,5.53
2017-08-22T01:54:15.101Z,6.90
2017-08-22T01:56:42.752Z,5.97
2017-08-22T01:59:10.407Z,5.37
2017-08-22T02:01:38.175Z,5.20
2017-08-22T02:04:05.823Z,5.80
2017-08-22T02:06:33.591Z,5.50
2017-08-22T02:09:01.262Z,5.53
2017-08-22T02:11:28.923Z,6.30
2017-08-22T02:13:56.683Z,6.30
2017-08-22T02:16:24.367Z,5.23
2017-08-22T02:18:52.016Z,6.00
2017-08-22T02:21:19.787Z,6.20
2017-08-22T02:23:47.438Z,5.73
2017-08-22T02:26:15.093Z,5.90
2017-08-22T02:28:42.843Z,6.03
2017-08-22T02:31:10.487Z,6.60
2017-08-22T02:33:38.147Z,5.53
2017-08-22T02:36:05.891Z,5.30
2017-08-22T02:38:33.540Z,5.40
2017-08-22T02:41:01.287Z,5.80
2017-08-22T02:43:29.031Z,5.03
2017-08-22T02:45:56.677Z,5.83
2017-08-22T02:48:24.454Z,5.13
2017-08-22T02:50:52.120Z,5.23
2017-08-22T02:53:19.876Z,5.47
2017-08-22T02:55:47.533Z,5.80
2017-08-22T02:58:15.238Z,6.30
2017-08-22T03:00:42.976Z,5.07
2017-08-22T03:03:10.656Z,5.97
2017-08-22T03:05:38.408Z,6.30
2017-08-22T03:08:06.051Z,6.00
2017-08-22T03:10:33.690Z,6.13
2017-08-22T03:13:01.457Z,6.47
2017-08-22T03:15:29.113Z,5.40
2017-08-22T03:17:56.775Z,5.90
2017-08-22T03:20:24.524Z,5.53
2017-08-22T03:22:52.285Z,6.43
2017-08-22T03:25:19.941Z,6.00
2017-08-22T03:27:47.587Z,6.03
2017-08-22T03:30:15.348Z,6.27
2017-08-22T03:32:42.998Z,5.83
2017-08-22T03:35:10.743Z,6.30
2017-08-22T03:37:38.534Z,6.27
2017-08-22T03:40:06.188Z,5.60
2017-08-22T03:42:33.835Z,6.50
2017-08-22T03:45:01.596Z,5.80
2017-08-22T03:47:29.256Z,5.80
2017-08-22T03:49:56.967Z,6.27
2017-08-22T03:52:24.720Z,5.73
2017-08-22T03:54:52.471Z,5.87
2017-08-22T03:57:20.217Z,5.97
2017-08-22T03:59:47.875Z,6.17
2017-08-22T04:02:15.645Z,5.37
2017-08-22T04:04:43.300Z,5.63
2017-08-22T04:07:10.947Z,5.37
2017-08-22T04:09:38.707Z,5.80
2017-08-22T04:12:06.368Z,6.40
2017-08-22T04:14:34.046Z,5.57
2017-08-22T04:17:01.844Z,5.87
2017-08-22T04:19:29.490Z,5.90
2017-08-22T04:21:57.144Z,5.53
2017-08-22T04:24:24.907Z,5.70
2017-08-22T04:26:52.559Z,6.33
2017-08-22T04:29:20.211Z,6.50
2017-08-22T04:31:47.967Z,6.40
2017-08-22T04:34:15.620Z,5.40
2017-08-22T04:36:43.271Z,6.30
2017-08-22T04:39:11.026Z,6.03
2017-08-22T04:41:38.671Z,5.57
2017-08-22T04:44:06.421Z,5.67
2017-08-22T04:46:34.066Z,5.60
2017-08-22T04:49:01.812Z,5.63
2017-08-22T04:51:29.463Z,4.90
2017-08-22T04:53:57.220Z,6.07
2017-08-22T04:56:24.881Z,5.10
2017-08-22T04:58:52.543Z,5.13
2017-08-22T05:01:20.307Z,5.67
2017-08-22T05:03:47.979Z,5.93
2017-08-22T05:06:15.646Z,5.97
2017-08-22T05:08:43.398Z,5.97
2017-08-22T05:11:11.050Z,5.77
2017-08-22T05:13:38.704Z,5.13
2017-08-22T05:16:06.446Z,5.97
2017-08-22T05:18:34.095Z,6.13
2017-08-22T05:21:01.839Z,5.20
2017-08-22T05:23:29.626Z,5.13
2017-08-22T05:25:57.276Z,5.83
2017-08-22T05:28:25.034Z,5.53
2017-08-22T05:30:52.771Z,5.50
2017-08-22T05:33:20.430Z,4.50
2017-08-22T05:35:48.175Z,5.33
2017-08-22T05:38:15.949Z,5.33
2017-08-22T05:40:43.595Z,5.90
2017-08-22T05:43:11.251Z,5.87
2017-08-22T05:45:39.015Z,4.93
2017-08-22T05:48:06.785Z,5.80
2017-08-22T05:50:34.456Z,6.00
2017-08-22T05:53:02.106Z,6.10
2017-08-22T05:55:29.851Z,5.83
2017-08-22T05:57:57.503Z,5.97
2017-08-22T06:00:25.255Z,5.73
2017-08-22T06:02:52.919Z,5.53
2017-08-22T06:05:20.591Z,5.20
2017-08-22T06:07:48.346Z,6.10
2017-08-22T06:10:15.999Z,6.23
2017-08-22T06:12:43.752Z,5.80
2017-08-22T06:15:11.437Z,5.67
2017-08-22T06:17:39.208Z,4.73
2017-08-22T06:20:06.858Z,5.80
2017-08-22T06:22:34.505Z,4.93
2017-08-22T06:25:02.258Z,5.77
2017-08-22T06:27:29.917Z,6.67
2017-08-22T06:29:57.671Z,5.03
2017-08-22T06:32:25.326Z,5.47
2017-08-22T06:34:52.976Z,5.30
2017-08-22T06:37:20.723Z,5.30
2017-08-22T06:39:48.414Z,4.80
2017-08-22T06:42:16.083Z,5.40
2017-08-22T06:44:43.833Z,5.03
2017-08-22T06:47:11.487Z,5.97
2017-08-22T06:49:39.231Z,4.97
2017-08-22T06:52:06.889Z,5.40
2017-08-22T06:54:34.645Z,5.70
2017-08-22T06:57:02.304Z,5.30
2017-08-22T06:59:30.519Z,5.60
2017-08-22T07:01:58.267Z,5.07
2017-08-22T07:04:26.036Z,5.50
2017-08-22T07:06:54.031Z,5.80
2017-08-22T07:09:21.675Z,5.57
2017-08-22T07:11:49.450Z,5.60
2017-08-22T07:14:17.210Z,5.90
2017-08-22T07:16:44.856Z,5.80
2017-08-22T07:19:12.511Z,5.63
2017-08-22T07:21:40.271Z,5.00
2017-08-22T07:24:07.934Z,5.53
2017-08-22T07:26:35.592Z,4.70
2017-08-22T07:29:03.351Z,5.50
2017-08-22T07:31:31.003Z,5.63
2017-08-22T07:33:58.656Z,5.30
2017-08-22T07:36:26.419Z,5.40
2017-08-22T07:38:54.075Z,5.40
2017-08-22T07:41:21.727Z,5.93
2017-08-22T07:43:49.479Z,5.30
2017-08-22T07:46:17.122Z,5.57
2017-08-22T07:48:44.875Z,5.77
2017-08-22T07:51:12.541Z,5.80
2017-08-22T07:53:40.210Z,4.63
2017-08-22T07:56:07.956Z,5.63
2017-08-22T07:58:35.606Z,5.40
2017-08-22T08:01:03.375Z,5.20
2017-08-22T08:03:31.067Z,5.87
2017-08-22T08:05:58.750Z,5.20
2017-08-22T08:08:26.516Z,4.90
2017-08-22T08:10:54.283Z,4.30
2017-08-22T08:13:21.959Z,5.50
2017-08-22T08:15:49.710Z,5.87
2017-08-22T08:18:17.398Z,5.40
2017-08-22T08:20:45.056Z,5.10
2017-08-22T08:23:12.815Z,7.40
2017-08-22T08:25:40.546Z,9.00
2017-08-22T08:28:08.198Z,5.80
2017-08-22T08:30:35.943Z,5.23
2017-08-22T08:33:03.599Z,5.20
2017-08-22T08:35:31.413Z,4.63
2017-08-22T08:37:59.168Z,11.33
2017-08-22T08:40:26.930Z,4.90
2017-08-22T08:42:54.581Z,4.33
2017-08-22T08:45:22.240Z,5.10
2017-08-22T08:47:49.990Z,5.30
2017-08-22T08:50:17.652Z,5.03
2017-08-22T08:52:45.344Z,4.73
2017-08-22T08:55:13.103Z,5.80
2017-08-22T08:57:40.755Z,4.57
2017-08-22T09:00:08.470Z,5.70
2017-08-22T09:02:36.231Z,4.70
2017-08-22T09:05:03.930Z,4.30
2017-08-22T09:07:31.585Z,5.43
2017-08-22T09:09:59.361Z,4.20
2017-08-22T09:12:27.022Z,4.13
2017-08-22T09:14:54.671Z,3.90
2017-08-22T09:17:22.427Z,4.00
2017-08-22T09:19:50.083Z,5.10
2017-08-22T09:22:17.843Z,5.23
2017-08-22T09:24:45.488Z,4.70
2017-08-22T09:27:13.141Z,4.73
2017-08-22T09:29:40.886Z,4.40
2017-08-22T09:32:08.675Z,4.23
2017-08-22T09:34:36.332Z,4.40
2017-08-22T09:37:03.990Z,4.77
2017-08-22T09:39:31.807Z,4.80
2017-08-22T09:41:59.546Z,3.90
2017-08-22T09:44:27.195Z,4.00
2017-08-22T09:46:54.943Z,5.10
2017-08-22T09:49:22.596Z,4.10
2017-08-22T09:51:50.255Z,3.93
2017-08-22T09:54:18.003Z,3.83
2017-08-22T09:56:45.660Z,4.20
2017-08-22T09:59:13.420Z,4.80
2017-08-22T10:01:41.172Z,4.70
2017-08-22T10:04:08.836Z,4.37
2017-08-22T10:06:36.593Z,5.97
2017-08-22T10:09:04.346Z,5.97
2017-08-22T10:11:32.092Z,5.40
2017-08-22T10:13:59.737Z,5.20
2017-08-22T10:16:27.503Z,4.83
2017-08-22T10:18:55.155Z,5.67
2017-08-22T10:21:22.816Z,5.60
2017-08-22T10:23:50.571Z,5.70
2017-08-22T10:26:18.220Z,4.90
2017-08-22T10:28:45.955Z,5.80
2017-08-22T10:31:13.739Z,5.50
2017-08-22T10:33:41.391Z,5.33
2017-08-22T10:36:09.035Z,5.63
2017-08-22T10:38:36.791Z,5.00
2017-08-22T10:41:04.445Z,4.40
2017-08-22T10:43:32.099Z,4.80
2017-08-22T10:45:59.859Z,5.60
2017-08-22T10:48:27.524Z,6.47
2017-08-22T10:50:55.210Z,5.53
2017-08-22T10:53:22.959Z,5.40
2017-08-22T10:55:50.627Z,5.27
2017-08-22T10:58:18.276Z,3.57
2017-08-22T11:00:46.022Z,3.60
2017-08-22T11:03:13.699Z,6.30
2017-08-22T11:05:41.347Z,4.23
2017-08-22T11:08:09.090Z,3.90
2017-08-22T11:10:36.849Z,3.40
2017-08-22T11:13:04.591Z,3.53
2017-08-22T11:15:32.251Z,3.53
2017-08-22T11:17:59.912Z,3.07
2017-08-22T11:20:27.671Z,3.60
2017-08-22T11:22:55.432Z,2.90
2017-08-22T11:25:23.089Z,2.83
2017-08-22T11:27:50.745Z,3.27
2017-08-22T11:30:18.483Z,3.77
2017-08-22T11:32:46.177Z,3.00
2017-08-22T11:35:13.936Z,3.23
2017-08-22T11:37:41.590Z,5.40
2017-08-22T11:40:09.247Z,2.70
2017-08-22T11:42:36.995Z,2.90
2017-08-22T11:45:04.651Z,2.50
2017-08-22T11:47:32.326Z,3.00
2017-08-22T11:50:00.079Z,2.70
2017-08-22T11:52:27.767Z,2.47
2017-08-22T11:54:55.419Z,2.97
2017-08-22T11:57:23.188Z,3.50
2017-08-22T11:59:50.836Z,2.83
2017-08-22T12:02:18.510Z,3.00
2017-08-22T12:04:46.280Z,3.17
2017-08-22T12:07:13.939Z,3.20
2017-08-22T12:09:41.594Z,3.00
2017-08-22T12:12:09.356Z,3.33
2017-08-22T12:14:37.141Z,3.33
2017-08-22T12:17:04.856Z,2.67
2017-08-22T12:19:32.547Z,2.83
2017-08-22T12:22:00.329Z,2.40
2017-08-22T12:24:28.031Z,2.90
2017-08-22T12:26:55.786Z,3.03
2017-08-22T12:29:54.223Z,2.83
2017-08-22T12:32:21.987Z,2.23
2017-08-22T12:34:49.640Z,2.40
2017-08-22T12:37:17.290Z,3.47
2017-08-22T12:39:45.028Z,2.53
2017-08-22T12:42:12.683Z,3.10
2017-08-22T12:44:40.427Z,2.67
2017-08-22T12:47:08.079Z,2.80
2017-08-22T12:49:35.828Z,2.17
2017-08-22T12:52:03.488Z,10.30
2017-08-22T12:54:31.248Z,4.50
2017-08-22T12:56:58.900Z,2.67
2017-08-22T12:59:26.659Z,2.40
2017-08-22T13:01:54.308Z,2.67
2017-08-22T13:04:21.959Z,2.77
2017-08-22T13:06:49.715Z,3.47
2017-08-22T13:09:17.393Z,2.40
2017-08-22T13:11:45.047Z,2.40
2017-08-22T13:14:12.815Z,3.60
2017-08-22T13:16:40.480Z,3.80
2017-08-22T13:19:08.236Z,2.47
2017-08-22T13:21:35.895Z,2.70
2017-08-22T13:24:03.589Z,2.43
2017-08-22T13:26:31.356Z,2.73
2017-08-22T13:28:59.003Z,2.77
2017-08-22T13:31:26.646Z,2.30
2017-08-22T13:33:54.399Z,2.30
2017-08-22T13:36:22.093Z,2.03
2017-08-22T13:38:49.836Z,2.07
2017-08-22T13:41:18.247Z,2.20
2017-08-22T13:43:46.021Z,2.67
2017-08-22T13:46:13.682Z,2.50
2017-08-22T13:48:41.342Z,2.27
2017-08-22T13:51:09.089Z,2.83
2017-08-22T13:53:36.770Z,2.17
2017-08-22T13:56:04.507Z,2.53
2017-08-22T13:58:32.169Z,2.30
2017-08-22T14:00:59.858Z,2.77
2017-08-22T14:03:27.632Z,2.77
2017-08-22T14:05:55.291Z,3.40
2017-08-22T14:08:22.948Z,2.40
2017-08-22T14:10:50.720Z,3.97
2017-08-22T14:13:18.378Z,2.10
2017-08-22T14:15:46.038Z,2.10
2017-08-22T14:18:13.820Z,2.33
2017-08-22T14:20:41.570Z,2.17
2017-08-22T14:23:10.089Z,2.00
2017-08-22T14:25:37.739Z,2.00
2017-08-22T14:28:05.395Z,1.80
2017-08-22T14:30:33.140Z,2.60
2017-08-22T14:33:00.792Z,2.93
2017-08-22T14:35:28.548Z,2.07
2017-08-22T14:37:56.288Z,2.20
2017-08-22T14:40:24.076Z,3.70
2017-08-22T14:42:51.727Z,2.90
2017-08-22T14:45:20.139Z,2.00
2017-08-22T14:47:47.894Z,2.43
2017-08-22T14:50:15.548Z,2.10
2017-08-22T14:52:43.199Z,2.10
2017-08-22T14:55:10.944Z,2.10
2017-08-22T14:57:38.591Z,2.30
2017-08-22T15:00:06.335Z,2.57
2017-08-22T15:02:34.098Z,1.80
2017-08-22T15:05:01.750Z,2.23
2017-08-22T15:07:29.496Z,2.03
2017-08-22T15:09:57.258Z,2.60
2017-08-22T15:12:24.907Z,2.30
2017-08-22T15:14:52.555Z,2.00
2017-08-22T15:17:20.301Z,2.47
2017-08-22T15:19:48.730Z,2.50
2017-08-22T15:22:16.482Z,2.60
2017-08-22T15:24:44.238Z,2.47
2017-08-22T15:27:11.906Z,2.60
2017-08-22T15:29:39.554Z,2.20
2017-08-22T15:32:07.306Z,2.53
2017-08-22T15:34:34.954Z,2.40
2017-08-22T15:37:02.619Z,2.27
2017-08-22T15:39:30.367Z,2.43
2017-08-22T15:41:58.014Z,2.53
2017-08-22T15:44:25.664Z,2.40
2017-08-22T15:46:53.463Z,2.63
2017-08-22T15:49:21.106Z,1.80
2017-08-22T15:51:48.871Z,2.40
2017-08-22T15:54:16.624Z,1.97
2017-08-22T15:56:44.283Z,2.37
2017-08-22T15:59:11.950Z,2.30
2017-08-22T16:01:39.703Z,3.00
2017-08-22T16:04:07.355Z,3.30
2017-08-22T16:06:35.012Z,2.73
2017-08-22T16:09:03.625Z,4.30
2017-08-22T16:11:31.283Z,3.90
2017-08-22T16:13:59.038Z,2.93
2017-08-22T16:16:26.685Z,2.97
2017-08-22T16:18:54.351Z,2.67
2017-08-22T16:21:22.094Z,2.50
2017-08-22T16:23:49.866Z,3.23
2017-08-22T16:26:18.280Z,2.67
2017-08-22T16:28:45.939Z,2.50
2017-08-22T16:31:13.699Z,2.60
2017-08-22T16:33:41.363Z,2.57
2017-08-22T16:36:09.124Z,2.37
2017-08-22T16:38:36.784Z,1.93
2017-08-22T16:41:04.429Z,2.50
2017-08-22T16:43:32.179Z,2.70
2017-08-22T16:45:59.827Z,2.33
2017-08-22T16:48:28.339Z,2.30
2017-08-22T16:50:56.036Z,2.40
2017-08-22T16:53:23.841Z,2.60
2017-08-22T16:55:51.533Z,2.57
2017-08-22T16:58:19.178Z,2.57
2017-08-22T17:00:46.927Z,2.20
2017-08-22T17:03:14.692Z,2.10
2017-08-22T17:05:42.347Z,2.20
2017-08-22T17:08:10.002Z,2.83
2017-08-22T17:10:37.760Z,2.43
2017-08-22T17:13:05.428Z,2.67
2017-08-22T17:15:33.092Z,2.40
2017-08-22T17:18:00.849Z,2.20
2017-08-22T17:20:28.500Z,2.03
2017-08-22T17:22:56.155Z,2.57
2017-08-22T17:25:23.905Z,2.40
2017-08-22T17:27:51.650Z,2.63
2017-08-22T17:30:19.435Z,2.40
2017-08-22T17:32:47.851Z,2.30
2017-08-22T17:35:15.506Z,2.47
2017-08-22T17:37:43.252Z,2.50
2017-08-22T17:40:10.908Z,2.57
2017-08-22T17:42:38.652Z,2.90
2017-08-22T17:45:07.067Z,2.83
2017-08-22T17:47:34.826Z,3.60
2017-08-22T17:50:02.480Z,2.87
2017-08-22T17:52:30.140Z,2.90
2017-08-22T17:54:57.886Z,3.30
2017-08-22T17:57:25.540Z,2.80
2017-08-22T17:59:53.293Z,2.83
2017-08-22T18:02:20.951Z,3.10
2017-08-22T18:04:48.737Z,3.53
2017-08-22T18:07:16.422Z,3.17
2017-08-22T18:09:44.167Z,3.30
2017-08-22T18:12:11.916Z,3.37
2017-08-22T18:14:39.574Z,4.00
2017-08-22T18:17:07.335Z,3.20
2017-08-22T18:19:34.986Z,3.70
2017-08-22T18:22:02.635Z,2.90
2017-08-22T18:24:30.399Z,3.20
2017-08-22T18:26:58.047Z,3.70
2017-08-22T18:29:25.699Z,2.77
2017-08-22T18:31:53.441Z,5.10
2017-08-22T18:34:21.101Z,8.97
2017-08-22T18:36:48.855Z,5.60
2017-08-22T18:39:16.507Z,4.50
2017-08-22T18:41:44.155Z,4.40
2017-08-22T18:44:11.910Z,4.33
2017-08-22T18:46:39.559Z,4.10
2017-08-22T18:49:07.213Z,4.63
2017-08-22T18:51:34.972Z,4.87
2017-08-22T18:54:02.620Z,4.47
2017-08-22T18:56:30.392Z,4.83
2017-08-22T18:58:58.052Z,4.53
2017-08-22T19:01:25.702Z,4.90
2017-08-22T19:03:53.470Z,5.10
2017-08-22T19:06:21.129Z,4.50
2017-08-22T19:08:48.794Z,4.70
2017-08-22T19:11:16.541Z,4.80
2017-08-22T19:13:44.304Z,4.63
2017-08-22T19:16:12.059Z,5.00
2017-08-22T19:18:39.706Z,4.83
2017-08-22T19:21:08.122Z,5.40
2017-08-22T19:23:35.864Z,6.63
2017-08-22T19:26:03.635Z,6.10
2017-08-22T19:28:31.296Z,5.03
2017-08-22T19:30:58.949Z,5.80
2017-08-22T19:33:26.706Z,4.87
2017-08-22T19:35:54.356Z,5.00
2017-08-22T19:38:22.011Z,5.17
2017-08-22T19:40:49.767Z,5.63
2017-08-22T19:43:18.195Z,5.93
2017-08-22T19:45:45.847Z,5.10
2017-08-22T19:48:13.591Z,5.53
2017-08-22T19:50:41.245Z,5.53
2017-08-22T19:53:09.060Z,4.90
2017-08-22T19:55:36.710Z,4.87
2017-08-22T19:58:04.365Z,4.87
2017-08-22T20:00:32.131Z,5.50
2017-08-22T20:02:59.785Z,4.40
2017-08-22T20:05:27.547Z,4.77
2017-08-22T20:07:55.207Z,5.27
2017-08-22T20:10:22.975Z,4.80
2017-08-22T20:12:50.627Z,5.30
2017-08-22T20:15:18.298Z,4.87
2017-08-22T20:17:46.063Z,5.20
2017-08-22T20:20:13.726Z,5.10
2017-08-22T20:22:41.483Z,4.77
2017-08-22T20:25:09.144Z,5.23
2017-08-22T20:27:36.795Z,4.80
2017-08-22T20:30:04.563Z,4.77
2017-08-22T20:32:32.214Z,4.23
2017-08-22T20:34:59.864Z,4.50
2017-08-22T20:37:27.623Z,4.60
2017-08-22T20:39:55.411Z,4.90
2017-08-22T20:42:23.065Z,4.30
2017-08-22T20:44:50.721Z,4.50
2017-08-22T20:47:18.486Z,4.40
2017-08-22T20:49:46.143Z,4.60
2017-08-22T20:52:13.800Z,4.60
2017-08-22T20:54:41.559Z,4.77
2017-08-22T20:57:09.208Z,4.53
2017-08-22T20:59:36.855Z,5.03
2017-08-22T21:02:04.594Z,4.90
2017-08-22T21:04:32.237Z,4.40
2017-08-22T21:06:59.997Z,4.73
2017-08-22T21:09:27.643Z,4.93
2017-08-22T21:11:55.287Z,5.13
2017-08-22T21:14:23.056Z,5.00
2017-08-22T21:16:50.704Z,5.30
2017-08-22T21:19:18.452Z,5.17
2017-08-22T21:21:46.113Z,5.37
2017-08-22T21:24:13.891Z,5.50
2017-08-22T21:26:41.535Z,5.03
2017-08-22T21:29:09.179Z,6.23
2017-08-22T21:31:36.938Z,5.53
2017-08-22T21:34:04.682Z,4.73
2017-08-22T21:36:32.330Z,5.70
2017-08-22T21:39:00.083Z,5.33
2017-08-22T21:41:27.728Z,5.93
2017-08-22T21:43:56.155Z,5.73
2017-08-22T21:46:23.903Z,4.57
2017-08-22T21:48:51.559Z,5.87
2017-08-22T21:51:19.311Z,4.60
2017-08-22T21:53:47.086Z,5.30
2017-08-22T21:56:14.826Z,5.87
2017-08-22T21:58:43.250Z,5.17
2017-08-22T22:01:11.015Z,5.63
2017-08-22T22:03:38.690Z,5.83
2017-08-22T22:06:06.342Z,5.40
2017-08-22T22:08:34.093Z,5.60
2017-08-22T22:11:01.745Z,6.20
2017-08-22T22:13:29.491Z,5.63
2017-08-22T22:15:57.143Z,6.17
2017-08-22T22:18:24.904Z,5.93
2017-08-22T22:20:52.652Z,5.53
2017-08-22T22:23:20.300Z,5.80
2017-08-22T22:25:48.060Z,5.73
2017-08-22T22:28:15.712Z,6.00
2017-08-22T22:30:43.371Z,5.57
2017-08-22T22:33:11.136Z,5.53
2017-08-22T22:35:38.786Z,5.97
2017-08-22T22:38:06.447Z,6.30
2017-08-22T22:40:34.192Z,6.20
2017-08-22T22:43:01.947Z,6.00
2017-08-22T22:45:29.607Z,5.80
2017-08-22T22:47:57.375Z,5.40
2017-08-22T22:50:25.027Z,5.53
2017-08-22T22:52:52.677Z,5.73
2017-08-22T22:55:20.427Z,6.13
2017-08-22T22:57:48.080Z,5.47
2017-08-22T23:00:15.730Z,5.60
2017-08-22T23:02:43.511Z,5.63
2017-08-22T23:05:11.160Z,5.97
2017-08-22T23:07:38.809Z,5.67
2017-08-22T23:10:06.578Z,5.43
2017-08-22T23:12:34.234Z,5.47
2017-08-22T23:15:01.883Z,7.10
2017-08-22T23:17:29.662Z,6.20
2017-08-22T23:19:57.306Z,5.87
2017-08-22T23:22:24.959Z,6.10
2017-08-22T23:24:52.720Z,5.73
2017-08-22T23:27:20.394Z,6.00
2017-08-22T23:29:48.042Z,6.80
2017-08-22T23:32:15.799Z,5.73
2017-08-22T23:34:43.442Z,5.50
2017-08-22T23:37:11.095Z,5.70
2017-08-22T23:39:38.852Z,5.90
2017-08-22T23:42:06.511Z,5.73
2017-08-22T23:44:34.168Z,5.70
2017-08-22T23:47:01.923Z,6.30
2017-08-22T23:49:29.575Z,5.50
2017-08-22T23:51:57.230Z,5.97
2017-08-22T23:54:24.987Z,5.70
2017-08-22T23:56:52.631Z,5.70
2017-08-22T23:59:20.278Z,5.90
